createdAt,value
2019-02-09T00:00:38.397Z,26.47
2019-02-09T00:03:10.140Z,25.97
2019-02-09T00:05:41.579Z,29.43
2019-02-09T00:08:13.677Z,26.73
2019-02-09T00:10:45.404Z,26.80
2019-02-09T00:13:16.753Z,25.40
2019-02-09T00:15:48.982Z,24.10
2019-02-09T00:18:20.264Z,27.80
2019-02-09T00:20:52.706Z,27.20
2019-02-09T00:23:23.592Z,26.03
2019-02-09T00:25:54.531Z,29.27
2019-02-09T00:28:26.714Z,26.73
2019-02-09T00:30:57.864Z,26.67
2019-02-09T00:33:29.482Z,27.07
2019-02-09T00:36:01.791Z,26.07
2019-02-09T00:38:32.643Z,27.13
2019-02-09T00:41:03.549Z,28.60
2019-02-09T00:43:35.433Z,28.43
2019-02-09T00:46:06.612Z,30.47
2019-02-09T00:48:37.341Z,28.23
2019-02-09T00:51:08.394Z,26.40
2019-02-09T00:53:39.329Z,27.77
2019-02-09T00:56:10.862Z,29.27
2019-02-09T00:58:42.058Z,29.33
2019-02-09T01:01:13.760Z,29.53
2019-02-09T01:03:45.591Z,28.60
2019-02-09T01:06:16.320Z,28.90
2019-02-09T01:08:48.081Z,26.90
2019-02-09T01:11:19.073Z,28.53
2019-02-09T01:13:49.762Z,28.73
2019-02-09T01:16:20.391Z,28.90
2019-02-09T01:18:51.887Z,28.77
2019-02-09T01:21:23.360Z,32.60
2019-02-09T01:23:54.333Z,32.93
2019-02-09T01:26:25.442Z,28.03
2019-02-09T01:28:56.863Z,32.23
2019-02-09T01:31:47.494Z,31.80
2019-02-09T01:34:22.284Z,30.17
2019-02-09T01:36:53.946Z,31.10
2019-02-09T01:39:26.273Z,32.50
2019-02-09T01:41:58.203Z,26.60
2019-02-09T01:44:29.582Z,30.47
2019-02-09T01:47:01.325Z,31.27
2019-02-09T01:49:32.477Z,32.07
2019-02-09T01:52:03.884Z,31.23
2019-02-09T01:54:35.056Z,32.30
2019-02-09T01:57:07.009Z,33.07
2019-02-09T01:59:38.245Z,33.10
2019-02-09T02:02:10.066Z,30.40
2019-02-09T02:04:41.833Z,31.67
2019-02-09T02:07:13.766Z,31.10
2019-02-09T02:09:44.899Z,30.47
2019-02-09T02:12:16.196Z,30.77
2019-02-09T02:14:47.643Z,29.17
2019-02-09T02:17:19.268Z,30.93
2019-02-09T02:19:50.419Z,30.17
2019-02-09T02:22:21.462Z,30.63
2019-02-09T02:24:52.351Z,29.50
2019-02-09T02:27:23.173Z,28.87
2019-02-09T02:29:54.665Z,28.13
2019-02-09T02:32:26.500Z,30.37
2019-02-09T02:34:57.816Z,26.57
2019-02-09T02:37:29.501Z,27.67
2019-02-09T02:40:01.267Z,29.33
2019-02-09T02:42:33.389Z,28.80
2019-02-09T02:45:04.681Z,27.47
2019-02-09T02:47:37.583Z,29.53
2019-02-09T02:50:10.914Z,27.97
2019-02-09T02:52:42.326Z,32.40
2019-02-09T02:55:16.755Z,30.00
2019-02-09T02:57:48.407Z,27.63
2019-02-09T03:00:31.843Z,30.10
2019-02-09T03:02:56.465Z,28.20
2019-02-09T03:05:28.174Z,28.60
2019-02-09T03:07:59.629Z,27.47
2019-02-09T03:10:30.902Z,25.73
2019-02-09T03:13:02.945Z,23.63
2019-02-09T03:15:34.231Z,29.30
2019-02-09T03:18:07.276Z,26.50
2019-02-09T03:20:38.862Z,28.47
2019-02-09T03:23:10.294Z,29.97
2019-02-09T03:25:41.487Z,31.23
2019-02-09T03:28:12.504Z,28.37
2019-02-09T03:30:47.707Z,24.50
2019-02-09T03:33:17.774Z,24.77
2019-02-09T03:35:49.063Z,28.13
2019-02-09T03:38:20.370Z,24.97
2019-02-09T03:40:52.175Z,31.93
2019-02-09T03:43:24.364Z,28.13
2019-02-09T03:45:55.581Z,30.00
2019-02-09T03:48:26.773Z,29.97
2019-02-09T03:50:57.519Z,27.17
2019-02-09T03:53:29.132Z,29.73
2019-02-09T03:56:00.853Z,32.37
2019-02-09T03:58:31.699Z,29.47
2019-02-09T04:01:03.162Z,26.60
2019-02-09T04:03:35.740Z,29.77
2019-02-09T04:06:07.212Z,27.33
2019-02-09T04:08:38.528Z,35.83
2019-02-09T04:11:09.702Z,30.87
2019-02-09T04:13:40.721Z,33.37
2019-02-09T04:16:13.114Z,35.23
2019-02-09T04:18:43.884Z,35.30
2019-02-09T04:21:14.670Z,31.17
2019-02-09T04:23:46.418Z,31.60
2019-02-09T04:26:17.527Z,31.07
2019-02-09T04:28:48.926Z,32.97
2019-02-09T04:31:19.883Z,31.83
2019-02-09T04:33:50.578Z,28.30
2019-02-09T04:36:21.887Z,31.83
2019-02-09T04:38:52.757Z,32.63
2019-02-09T04:41:23.983Z,35.20
2019-02-09T04:43:54.819Z,30.43
2019-02-09T04:46:27.006Z,33.47
2019-02-09T04:48:59.654Z,33.10
2019-02-09T04:51:31.464Z,31.83
2019-02-09T04:54:03.009Z,39.17
2019-02-09T04:56:35.841Z,33.30
2019-02-09T04:59:13.154Z,35.07
2019-02-09T05:01:44.853Z,30.03
2019-02-09T05:04:16.240Z,32.13
2019-02-09T05:06:48.307Z,32.53
2019-02-09T05:09:20.638Z,34.80
2019-02-09T05:11:56.052Z,35.00
2019-02-09T05:14:28.233Z,33.47
2019-02-09T05:17:00.373Z,29.77
2019-02-09T05:19:32.014Z,46.43
2019-02-09T05:22:03.856Z,31.60
2019-02-09T05:24:36.216Z,30.60
2019-02-09T05:27:08.721Z,37.23
2019-02-09T05:29:40.843Z,32.10
2019-02-09T05:32:11.372Z,29.77
2019-02-09T05:34:41.974Z,31.33
2019-02-09T05:37:12.759Z,32.20
2019-02-09T05:39:43.550Z,31.90
2019-02-09T05:42:14.363Z,27.83
2019-02-09T05:44:45.421Z,27.80
2019-02-09T05:47:16.114Z,28.73
2019-02-09T05:49:47.024Z,29.93
2019-02-09T05:52:17.840Z,31.57
2019-02-09T05:54:48.601Z,27.13
2019-02-09T05:57:19.428Z,30.27
2019-02-09T05:59:50.225Z,33.57
2019-02-09T06:02:20.751Z,30.70
2019-02-09T06:04:51.362Z,28.10
2019-02-09T06:07:22.147Z,32.07
2019-02-09T06:09:52.799Z,31.63
2019-02-09T06:12:23.404Z,27.47
2019-02-09T06:14:53.963Z,33.70
2019-02-09T06:17:24.602Z,30.50
2019-02-09T06:19:55.352Z,30.07
2019-02-09T06:22:26.057Z,31.00
2019-02-09T06:24:56.679Z,32.87
2019-02-09T06:27:27.335Z,28.73
2019-02-09T06:29:58.260Z,29.60
2019-02-09T06:32:28.907Z,28.27
2019-02-09T06:34:59.447Z,33.37
2019-02-09T06:37:30.260Z,30.10
2019-02-09T06:40:00.887Z,29.93
2019-02-09T06:42:31.556Z,29.60
2019-02-09T06:45:02.198Z,29.47
2019-02-09T06:47:32.822Z,29.67
2019-02-09T06:50:03.574Z,33.50
2019-02-09T06:52:34.159Z,27.40
2019-02-09T06:55:05.243Z,27.90
2019-02-09T06:57:35.947Z,28.43
2019-02-09T07:00:08.549Z,28.17
2019-02-09T07:02:39.096Z,31.97
2019-02-09T07:05:13.528Z,27.43
2019-02-09T07:07:44.369Z,27.03
2019-02-09T07:10:17.294Z,25.50
2019-02-09T07:12:47.816Z,26.70
2019-02-09T07:15:22.915Z,30.63
2019-02-09T07:17:53.712Z,27.90
2019-02-09T07:20:24.944Z,30.87
2019-02-09T07:22:56.166Z,26.90
2019-02-09T07:25:27.413Z,28.20
2019-02-09T07:27:58.040Z,27.03
2019-02-09T07:30:29.187Z,29.50
2019-02-09T07:33:00.388Z,27.20
2019-02-09T07:35:30.953Z,27.83
2019-02-09T07:38:01.721Z,27.37
2019-02-09T07:40:32.406Z,30.23
2019-02-09T07:43:03.144Z,29.43
2019-02-09T07:45:34.098Z,30.93
2019-02-09T07:48:05.439Z,28.17
2019-02-09T07:50:36.471Z,27.87
2019-02-09T07:53:07.267Z,28.53
2019-02-09T07:55:37.875Z,30.03
2019-02-09T07:58:08.698Z,29.33
2019-02-09T08:00:39.572Z,32.10
2019-02-09T08:03:10.070Z,30.03
2019-02-09T08:05:40.799Z,29.03
2019-02-09T08:08:11.531Z,32.13
2019-02-09T08:10:44.883Z,30.17
2019-02-09T08:13:15.562Z,29.70
2019-02-09T08:15:46.101Z,31.67
2019-02-09T08:18:16.799Z,28.07
2019-02-09T08:20:47.442Z,31.67
2019-02-09T08:23:18.149Z,32.53
2019-02-09T08:25:48.902Z,28.57
2019-02-09T08:28:19.904Z,26.70
2019-02-09T08:30:53.686Z,29.33
2019-02-09T08:33:24.347Z,30.80
2019-02-09T08:36:13.772Z,28.20
2019-02-09T08:38:44.786Z,25.93
2019-02-09T08:41:15.645Z,26.07
2019-02-09T08:43:46.542Z,28.27
2019-02-09T08:46:17.554Z,24.77
2019-02-09T08:48:48.462Z,29.00
2019-02-09T08:51:19.563Z,28.77
2019-02-09T08:53:50.156Z,29.80
2019-02-09T08:56:20.693Z,28.10
2019-02-09T08:58:51.421Z,27.47
2019-02-09T09:01:24.738Z,28.43
2019-02-09T09:03:55.286Z,31.57
2019-02-09T09:06:26.334Z,32.57
2019-02-09T09:08:57.522Z,32.73
2019-02-09T09:11:28.462Z,32.10
2019-02-09T09:13:59.750Z,30.97
2019-02-09T09:16:30.991Z,29.97
2019-02-09T09:19:01.626Z,30.13
2019-02-09T09:21:32.680Z,27.40
2019-02-09T09:24:03.917Z,29.30
2019-02-09T09:26:34.773Z,29.40
2019-02-09T09:29:05.764Z,25.57
2019-02-09T09:31:36.565Z,23.87
2019-02-09T09:34:07.721Z,24.73
2019-02-09T09:36:38.799Z,24.00
2019-02-09T09:39:10.801Z,27.80
2019-02-09T09:41:41.960Z,25.73
2019-02-09T09:44:12.989Z,25.67
2019-02-09T09:46:43.945Z,25.80
2019-02-09T09:49:14.733Z,23.43
2019-02-09T09:51:45.486Z,29.30
2019-02-09T09:54:16.196Z,23.97
2019-02-09T09:56:47.076Z,21.83
2019-02-09T09:59:18.055Z,24.67
2019-02-09T10:01:49.033Z,23.17
2019-02-09T10:04:19.750Z,23.90
2019-02-09T10:06:50.823Z,26.13
2019-02-09T10:09:21.656Z,25.77
2019-02-09T10:11:52.283Z,26.50
2019-02-09T10:14:22.903Z,27.43
2019-02-09T10:16:53.859Z,25.97
2019-02-09T10:19:24.543Z,28.03
2019-02-09T10:21:57.290Z,26.30
2019-02-09T10:24:28.369Z,28.10
2019-02-09T10:26:59.404Z,28.33
2019-02-09T10:29:30.030Z,27.93
2019-02-09T10:32:00.629Z,30.27
2019-02-09T10:34:31.151Z,29.00
2019-02-09T10:37:02.032Z,34.13
2019-02-09T10:39:32.825Z,30.00
2019-02-09T10:42:03.752Z,29.43
2019-02-09T10:44:34.587Z,28.70
2019-02-09T10:47:05.526Z,33.13
2019-02-09T10:49:36.390Z,30.50
2019-02-09T10:52:07.005Z,31.50
2019-02-09T10:54:37.616Z,28.53
2019-02-09T10:57:08.509Z,27.17
2019-02-09T10:59:39.235Z,30.17
2019-02-09T11:02:10.384Z,30.40
2019-02-09T11:04:41.149Z,29.27
2019-02-09T11:07:12.121Z,30.20
2019-02-09T11:09:43.092Z,32.07
2019-02-09T11:12:13.600Z,28.83
2019-02-09T11:14:44.729Z,30.77
2019-02-09T11:17:15.734Z,30.77
2019-02-09T11:19:46.790Z,30.47
2019-02-09T11:22:17.881Z,34.17
2019-02-09T11:24:50.420Z,30.43
2019-02-09T11:27:22.907Z,30.20
2019-02-09T11:29:53.845Z,28.63
2019-02-09T11:32:24.361Z,32.10
2019-02-09T11:34:54.999Z,32.33
2019-02-09T11:37:25.816Z,30.77
2019-02-09T11:39:56.467Z,35.03
2019-02-09T11:42:27.094Z,31.67
2019-02-09T11:44:57.719Z,31.27
2019-02-09T11:47:31.541Z,31.07
2019-02-09T11:50:02.386Z,31.90
2019-02-09T11:52:32.964Z,34.07
2019-02-09T11:55:03.901Z,33.50
2019-02-09T11:57:34.922Z,34.87
2019-02-09T12:00:09.603Z,32.77
2019-02-09T12:02:40.489Z,33.20
2019-02-09T12:05:11.336Z,37.37
2019-02-09T12:07:42.656Z,33.00
2019-02-09T12:10:14.099Z,34.67
2019-02-09T12:12:44.841Z,33.17
2019-02-09T12:15:19.102Z,35.67
2019-02-09T12:17:50.136Z,34.53
2019-02-09T12:20:21.429Z,35.77
2019-02-09T12:22:52.528Z,33.63
2019-02-09T12:25:26.153Z,32.90
2019-02-09T12:27:57.057Z,34.70
2019-02-09T12:30:31.254Z,33.67
2019-02-09T12:33:01.963Z,33.70
2019-02-09T12:35:32.780Z,34.10
2019-02-09T12:38:03.723Z,41.53
2019-02-09T12:40:35.106Z,33.70
2019-02-09T12:43:07.025Z,35.87
2019-02-09T12:45:39.609Z,34.07
2019-02-09T12:48:11.136Z,33.83
2019-02-09T12:50:42.182Z,35.30
2019-02-09T12:53:12.984Z,31.87
2019-02-09T12:55:43.816Z,29.60
2019-02-09T12:58:14.702Z,34.77
2019-02-09T13:00:45.802Z,32.33
2019-02-09T13:03:22.209Z,27.73
2019-02-09T13:05:53.165Z,27.50
2019-02-09T13:08:24.194Z,25.93
2019-02-09T13:10:55.659Z,27.30
2019-02-09T13:13:26.432Z,31.83
2019-02-09T13:15:57.154Z,30.73
2019-02-09T13:18:28.043Z,29.80
2019-02-09T13:20:59.014Z,28.53
2019-02-09T13:23:32.324Z,28.40
2019-02-09T13:26:03.444Z,28.37
2019-02-09T13:28:34.363Z,29.47
2019-02-09T13:31:05.682Z,29.17
2019-02-09T13:33:39.041Z,31.57
2019-02-09T13:36:08.883Z,28.83
2019-02-09T13:38:39.951Z,28.90
2019-02-09T13:41:11.091Z,25.83
2019-02-09T13:43:41.835Z,24.73
2019-02-09T13:46:12.718Z,31.27
2019-02-09T13:48:43.601Z,29.47
2019-02-09T13:51:14.575Z,26.90
2019-02-09T13:53:45.307Z,29.63
2019-02-09T13:56:16.204Z,29.90
2019-02-09T13:59:06.062Z,29.53
2019-02-09T14:01:36.789Z,24.93
2019-02-09T14:04:07.415Z,26.13
2019-02-09T14:06:38.301Z,27.87
2019-02-09T14:09:09.592Z,29.23
2019-02-09T14:11:40.581Z,27.73
2019-02-09T14:14:11.304Z,28.40
2019-02-09T14:16:41.921Z,22.87
2019-02-09T14:19:12.667Z,23.43
2019-02-09T14:21:43.442Z,22.97
2019-02-09T14:24:14.409Z,23.30
2019-02-09T14:26:45.375Z,22.57
2019-02-09T14:29:17.986Z,25.73
2019-02-09T14:31:48.767Z,27.47
2019-02-09T14:34:19.437Z,27.87
2019-02-09T14:36:50.525Z,27.90
2019-02-09T14:39:21.300Z,31.17
2019-02-09T14:41:52.239Z,26.13
2019-02-09T14:44:23.075Z,29.03
2019-02-09T14:46:53.961Z,28.30
2019-02-09T14:49:24.996Z,26.47
2019-02-09T14:51:55.629Z,26.63
2019-02-09T14:54:26.241Z,28.90
2019-02-09T14:56:57.219Z,25.43
2019-02-09T14:59:28.063Z,27.07
2019-02-09T15:01:58.870Z,29.57
2019-02-09T15:04:29.619Z,29.30
2019-02-09T15:07:00.772Z,31.53
2019-02-09T15:09:31.682Z,30.07
2019-02-09T15:12:02.288Z,29.07
2019-02-09T15:14:33.069Z,29.03
2019-02-09T15:17:05.733Z,29.60
2019-02-09T15:19:39.367Z,31.47
2019-02-09T15:22:10.350Z,33.03
2019-02-09T15:24:41.327Z,29.17
2019-02-09T15:27:12.189Z,28.33
2019-02-09T15:29:42.822Z,30.20
2019-02-09T15:32:13.803Z,31.33
2019-02-09T15:34:44.585Z,31.13
2019-02-09T15:37:15.468Z,30.43
2019-02-09T15:39:46.314Z,30.33
2019-02-09T15:42:17.385Z,29.77
2019-02-09T15:44:48.183Z,29.80
2019-02-09T15:47:18.946Z,33.03
2019-02-09T15:49:49.711Z,33.53
2019-02-09T15:52:20.287Z,36.10
2019-02-09T15:54:50.874Z,33.73
2019-02-09T15:57:21.851Z,41.07
2019-02-09T15:59:52.766Z,36.87
2019-02-09T16:02:23.372Z,40.57
2019-02-09T16:04:54.050Z,41.13
2019-02-09T16:07:24.885Z,38.30
2019-02-09T16:09:55.526Z,39.87
2019-02-09T16:12:26.137Z,39.57
2019-02-09T16:14:56.638Z,46.97
2019-02-09T16:17:27.455Z,39.50
2019-02-09T16:19:58.512Z,43.20
2019-02-09T16:22:29.275Z,45.33
2019-02-09T16:25:00.028Z,46.03
2019-02-09T16:27:30.840Z,40.80
2019-02-09T16:30:01.754Z,45.03
2019-02-09T16:32:32.331Z,42.53
2019-02-09T16:35:03.109Z,41.23
2019-02-09T16:37:33.857Z,49.00
2019-02-09T16:40:05.480Z,45.67
2019-02-09T16:42:36.645Z,49.97
2019-02-09T16:45:10.764Z,51.03
2019-02-09T16:47:42.044Z,53.37
2019-02-09T16:50:13.181Z,49.73
2019-02-09T16:52:44.028Z,51.47
2019-02-09T16:55:16.334Z,47.27
2019-02-09T16:57:47.318Z,49.93
2019-02-09T17:00:25.696Z,51.03
2019-02-09T17:02:56.653Z,49.53
2019-02-09T17:05:27.369Z,47.20
2019-02-09T17:07:58.262Z,50.97
2019-02-09T17:10:29.155Z,47.23
2019-02-09T17:13:00.077Z,47.23
2019-02-09T17:15:32.234Z,48.00
2019-02-09T17:18:03.096Z,47.77
2019-02-09T17:20:33.848Z,52.20
2019-02-09T17:23:04.678Z,44.63
2019-02-09T17:25:36.869Z,50.43
2019-02-09T17:28:08.310Z,45.77
2019-02-09T17:30:39.705Z,50.80
2019-02-09T17:33:10.399Z,55.83
2019-02-09T17:35:41.054Z,45.47
2019-02-09T17:38:11.842Z,49.33
2019-02-09T17:40:47.778Z,49.03
2019-02-09T17:43:18.661Z,52.83
2019-02-09T17:45:58.786Z,50.73
2019-02-09T17:48:29.636Z,54.70
2019-02-09T17:51:00.456Z,51.17
2019-02-09T17:53:31.250Z,53.87
2019-02-09T17:56:01.992Z,50.70
2019-02-09T17:58:32.874Z,50.50
2019-02-09T18:01:12.898Z,53.33
2019-02-09T18:03:43.815Z,50.37
2019-02-09T18:06:15.114Z,48.57
2019-02-09T18:08:48.439Z,49.00
2019-02-09T18:11:19.388Z,50.23
2019-02-09T18:13:49.978Z,53.13
2019-02-09T18:16:20.806Z,52.50
2019-02-09T18:18:51.698Z,47.20
2019-02-09T18:21:22.573Z,46.20
2019-02-09T18:23:53.684Z,64.93
2019-02-09T18:26:29.785Z,59.70
2019-02-09T18:29:01.164Z,66.27
2019-02-09T18:31:31.865Z,86.13
2019-02-09T18:34:02.422Z,79.80
2019-02-09T18:36:32.991Z,110.37
2019-02-09T18:39:05.292Z,86.33
2019-02-09T18:41:36.188Z,100.90
2019-02-09T18:44:06.996Z,105.50
2019-02-09T18:46:37.561Z,154.40
2019-02-09T18:49:08.405Z,145.57
2019-02-09T18:51:39.309Z,126.23
2019-02-09T18:54:09.847Z,126.90
2019-02-09T18:56:40.378Z,111.43
2019-02-09T18:59:11.257Z,100.63
2019-02-09T19:01:42.066Z,95.13
2019-02-09T19:04:12.667Z,89.67
2019-02-09T19:06:43.533Z,86.77
2019-02-09T19:09:14.450Z,80.07
2019-02-09T19:11:46.209Z,79.40
2019-02-09T19:14:17.599Z,79.50
2019-02-09T19:16:48.976Z,73.77
2019-02-09T19:19:20.047Z,68.20
2019-02-09T19:21:50.912Z,76.03
2019-02-09T19:24:21.487Z,66.30
2019-02-09T19:26:52.374Z,69.47
2019-02-09T19:29:23.074Z,58.77
2019-02-09T19:31:53.534Z,60.17
2019-02-09T19:34:24.093Z,54.57
2019-02-09T19:36:54.719Z,52.80
2019-02-09T19:39:25.469Z,55.30
2019-02-09T19:41:56.268Z,50.77
2019-02-09T19:44:27.085Z,51.83
2019-02-09T19:46:57.977Z,54.87
2019-02-09T19:49:28.627Z,53.13
2019-02-09T19:51:59.413Z,56.60
2019-02-09T19:54:29.906Z,56.57
2019-02-09T19:57:03.939Z,54.37
2019-02-09T19:59:34.481Z,59.23
2019-02-09T20:02:05.803Z,56.73
2019-02-09T20:04:36.594Z,59.73
2019-02-09T20:07:07.436Z,63.63
2019-02-09T20:09:37.949Z,56.40
2019-02-09T20:12:08.566Z,57.93
2019-02-09T20:14:39.195Z,59.70
2019-02-09T20:17:09.757Z,55.30
2019-02-09T20:19:40.403Z,55.47
2019-02-09T20:22:10.941Z,54.17
2019-02-09T20:24:41.530Z,54.80
2019-02-09T20:27:12.240Z,51.80
2019-02-09T20:29:43.110Z,53.43
2019-02-09T20:32:13.693Z,52.53
2019-02-09T20:34:44.287Z,50.27
2019-02-09T20:37:14.891Z,54.37
2019-02-09T20:39:47.013Z,57.30
2019-02-09T20:42:18.170Z,54.00
2019-02-09T20:44:48.762Z,52.70
2019-02-09T20:47:19.379Z,51.73
2019-02-09T20:49:50.169Z,52.63
2019-02-09T20:52:22.247Z,55.00
2019-02-09T20:54:52.861Z,54.77
2019-02-09T20:57:23.547Z,52.53
2019-02-09T20:59:54.245Z,52.80
2019-02-09T21:02:24.847Z,53.17
2019-02-09T21:04:55.477Z,52.23
2019-02-09T21:07:26.231Z,52.90
2019-02-09T21:09:56.870Z,60.27
2019-02-09T21:12:30.497Z,53.67
2019-02-09T21:15:01.118Z,52.43
2019-02-09T21:17:31.698Z,56.83
2019-02-09T21:20:02.459Z,54.47
2019-02-09T21:22:35.522Z,59.77
2019-02-09T21:25:26.483Z,57.60
2019-02-09T21:27:57.432Z,63.23
2019-02-09T21:30:28.805Z,56.87
2019-02-09T21:32:59.605Z,77.47
2019-02-09T21:35:30.700Z,65.33
2019-02-09T21:38:01.330Z,70.97
2019-02-09T21:40:32.441Z,61.93
2019-02-09T21:43:03.360Z,58.27
2019-02-09T21:45:34.183Z,70.80
2019-02-09T21:48:05.625Z,90.47
2019-02-09T21:50:37.175Z,80.60
2019-02-09T21:53:08.580Z,71.03
2019-02-09T21:55:39.560Z,69.53
2019-02-09T21:58:10.824Z,79.27
2019-02-09T22:00:43.269Z,81.37
2019-02-09T22:03:14.922Z,87.67
2019-02-09T22:05:51.695Z,88.60
2019-02-09T22:08:19.847Z,81.73
2019-02-09T22:10:51.018Z,85.60
2019-02-09T22:13:21.657Z,79.07
2019-02-09T22:15:52.405Z,74.83
2019-02-09T22:18:23.154Z,78.30
2019-02-09T22:20:54.008Z,81.67
2019-02-09T22:23:24.888Z,71.63
2019-02-09T22:25:57.242Z,77.03
2019-02-09T22:28:28.668Z,84.43
2019-02-09T22:31:00.878Z,75.03
2019-02-09T22:33:32.485Z,75.20
2019-02-09T22:36:03.124Z,74.07
2019-02-09T22:38:34.919Z,74.47
2019-02-09T22:41:07.058Z,74.07
2019-02-09T22:43:38.998Z,75.87
2019-02-09T22:46:10.040Z,81.37
2019-02-09T22:48:42.186Z,74.93
2019-02-09T22:51:14.722Z,69.53
2019-02-09T22:53:47.230Z,73.40
2019-02-09T22:56:19.042Z,66.40
2019-02-09T22:58:51.354Z,75.53
2019-02-09T23:01:37.333Z,83.50
2019-02-09T23:04:32.873Z,80.20
2019-02-09T23:07:13.023Z,83.67
2019-02-09T23:09:45.271Z,81.13
2019-02-09T23:12:17.862Z,82.07
2019-02-09T23:14:48.993Z,76.63
2019-02-09T23:17:20.734Z,79.63
2019-02-09T23:19:52.385Z,73.33
2019-02-09T23:22:23.561Z,72.80
2019-02-09T23:24:54.872Z,71.73
2019-02-09T23:27:26.933Z,77.17
2019-02-09T23:29:58.545Z,70.67
2019-02-09T23:32:30.297Z,71.83
2019-02-09T23:35:02.325Z,70.90
2019-02-09T23:37:35.068Z,69.57
2019-02-09T23:40:06.827Z,72.93
2019-02-09T23:42:37.962Z,70.93
2019-02-09T23:45:09.950Z,76.80
2019-02-09T23:47:42.898Z,72.97
2019-02-09T23:50:15.060Z,68.27
2019-02-09T23:52:46.841Z,70.40
2019-02-09T23:55:18.700Z,71.80
2019-02-09T23:57:50.591Z,73.57
